Ravensdale, Washington
Current Conditions -  °F | °C
As of 10:53 AM on Tuesday 21 Oct 2014 (Local Time) from KRNT Reporting Station
Broken Clouds Broken Clouds  
Wind Chill: 60°   Ceiling: 7500
Heat Index: 60°   Visibility: 10mi
Dew Point: 51°   Wind: 7mph
Humidity: 72%   Direction: 140°SE
Pressure: 29.92"   Gusts: NA
Location:  47.35°N, 121.99°W
Report Text: KRNT 211753Z 14006KT 10SM SCT046 SCT065 BKN075 16/11 A2992 RMK AO2 SLP136 60001 T01560106 10156 20117 51015
Loading
Personal Weather Stations






























Interactive Weather Map New forecast layout! Learn more

10-Day Weather Forecast

Advertisements
Track Severe Weather on mobile